Time;durP1;ratioP1;P1;durP2;ratioP2;P2;SDS_P1;SDS_P2;PMS_P1;PMS_P2;Temp;Humidity;BMP_temperature;BMP_pressure;BME280_temperature;BME280_humidity;BME280_pressure;Samples;Min_cycle;Max_cycle;Signal;HPM_P1;HPM_P2
2024/02/27 00:00:14;;;;;;;21.67;13.50;;;7.50;99.90;;;;;;5054668;28;20167;-70
2024/02/27 00:02:40;;;;;;;21.10;13.70;;;7.50;99.90;;;;;;5054493;28;20572;-71
2024/02/27 00:05:06;;;;;;;25.70;13.93;;;7.50;99.90;;;;;;5053373;28;20257;-70
2024/02/27 00:07:32;;;;;;;22.10;13.80;;;7.50;99.90;;;;;;5054536;28;20198;-70
2024/02/27 00:09:58;;;;;;;18.53;13.03;;;7.50;99.90;;;;;;5053232;28;20591;-70
2024/02/27 00:12:25;;;;;;;23.00;13.40;;;7.50;99.90;;;;;;5052901;28;20909;-69
2024/02/27 00:14:52;;;;;;;19.90;13.20;;;7.40;99.90;;;;;;5053085;28;20786;-71
2024/02/27 00:17:19;;;;;;;18.50;12.90;;;7.50;99.90;;;;;;5053055;28;20456;-71
2024/02/27 00:19:45;;;;;;;21.17;13.07;;;7.50;99.90;;;;;;5053720;28;20412;-70
2024/02/27 00:22:10;;;;;;;22.30;13.87;;;7.50;99.90;;;;;;5054025;28;20755;-70
2024/02/27 00:24:36;;;;;;;19.60;12.83;;;7.50;99.90;;;;;;5054188;28;20163;-71
2024/02/27 00:27:01;;;;;;;19.87;14.37;;;7.50;99.90;;;;;;5054104;28;20193;-70
2024/02/27 00:29:27;;;;;;;22.17;14.50;;;7.50;99.90;;;;;;5054035;28;20174;-70
2024/02/27 00:31:52;;;;;;;19.00;12.10;;;7.50;99.90;;;;;;5053804;28;20221;-70
2024/02/27 00:34:18;;;;;;;22.47;15.20;;;7.60;99.90;;;;;;5052386;28;20178;-70
2024/02/27 00:36:43;;;;;;;22.20;13.80;;;7.50;99.90;;;;;;5053824;28;20191;-70
2024/02/27 00:39:09;;;;;;;20.73;13.33;;;7.50;99.90;;;;;;5052684;28;20569;-70
2024/02/27 00:41:41;;;;;;;19.07;12.40;;;7.60;99.90;;;;;;5053630;28;20159;-72
2024/02/27 00:44:07;;;;;;;19.17;11.83;;;7.60;99.90;;;;;;5053751;28;20155;-70
2024/02/27 00:46:36;;;;;;;24.30;14.80;;;7.60;99.90;;;;;;5053699;28;20982;-70
2024/02/27 00:49:02;;;;;;;22.70;15.10;;;7.50;99.90;;;;;;5054205;28;20171;-70
2024/02/27 00:51:27;;;;;;;21.73;14.00;;;7.50;99.90;;;;;;5053402;28;20405;-70
2024/02/27 00:53:53;;;;;;;22.77;12.73;;;7.50;99.90;;;;;;5053535;28;20182;-70
2024/02/27 00:56:19;;;;;;;20.90;12.33;;;7.50;99.90;;;;;;5053512;28;20167;-70
2024/02/27 00:58:44;;;;;;;20.47;13.70;;;7.60;99.90;;;;;;5053441;28;20264;-70
2024/02/27 01:01:10;;;;;;;18.10;13.07;;;7.60;99.90;;;;;;5053291;28;20163;-71
2024/02/27 01:03:35;;;;;;;22.13;13.00;;;7.60;99.90;;;;;;5053484;28;20247;-70
2024/02/27 01:06:01;;;;;;;25.07;14.37;;;7.60;99.90;;;;;;5052150;28;20402;-70
2024/02/27 01:08:27;;;;;;;24.03;14.67;;;7.60;99.90;;;;;;5053389;28;20213;-70
2024/02/27 01:10:52;;;;;;;20.53;14.00;;;7.60;99.90;;;;;;5053306;28;20163;-70
2024/02/27 01:13:18;;;;;;;21.47;14.40;;;7.60;99.90;;;;;;5051704;28;20193;-71
2024/02/27 01:15:43;;;;;;;24.90;15.60;;;7.60;99.90;;;;;;5053168;28;20175;-70
2024/02/27 01:18:09;;;;;;;19.60;14.03;;;7.60;99.90;;;;;;5053062;28;20225;-71
2024/02/27 01:20:34;;;;;;;22.47;14.13;;;7.60;99.90;;;;;;5053326;28;20567;-70
2024/02/27 01:23:00;;;;;;;23.20;14.10;;;7.70;99.90;;;;;;5052940;28;20191;-70
2024/02/27 01:25:25;;;;;;;22.17;14.27;;;7.70;99.90;;;;;;5051792;28;20185;-70
2024/02/27 01:27:51;;;;;;;21.93;13.83;;;7.70;99.90;;;;;;5051717;28;20218;-70
2024/02/27 01:30:17;;;;;;;24.20;13.80;;;7.70;99.90;;;;;;5052895;28;20163;-70
2024/02/27 01:32:42;;;;;;;21.70;13.63;;;7.70;99.90;;;;;;5050516;28;20542;-70
2024/02/27 01:35:08;;;;;;;23.50;13.43;;;7.70;99.90;;;;;;5051788;28;20186;-71
2024/02/27 01:37:34;;;;;;;22.00;15.10;;;7.70;99.90;;;;;;5052550;28;20201;-71
2024/02/27 01:40:00;;;;;;;20.57;14.60;;;7.70;99.90;;;;;;5052753;28;20163;-71
2024/02/27 01:42:25;;;;;;;24.37;14.73;;;7.70;99.90;;;;;;5051308;28;20459;-70
2024/02/27 01:44:51;;;;;;;19.50;13.40;;;7.70;99.90;;;;;;5052605;28;20175;-70
2024/02/27 01:47:19;;;;;;;20.20;14.63;;;7.70;99.90;;;;;;5052517;28;20215;-70
2024/02/27 01:49:47;;;;;;;23.67;13.00;;;7.80;99.90;;;;;;5052558;28;20428;-70
2024/02/27 01:52:14;;;;;;;25.37;15.33;;;7.80;99.90;;;;;;5050955;28;20425;-71
2024/02/27 01:54:42;;;;;;;20.20;13.27;;;7.80;99.90;;;;;;5051249;28;20509;-70
2024/02/27 01:57:08;;;;;;;29.57;15.90;;;7.80;99.90;;;;;;5052304;28;20492;-70
2024/02/27 01:59:34;;;;;;;23.83;14.07;;;7.80;99.90;;;;;;5052411;28;20484;-70
2024/02/27 02:02:01;;;;;;;19.10;13.30;;;7.80;99.90;;;;;;5052055;28;20987;-70
2024/02/27 02:04:27;;;;;;;23.63;15.30;;;7.70;99.90;;;;;;5052304;28;20406;-70
2024/02/27 02:06:52;;;;;;;22.70;14.10;;;7.80;99.90;;;;;;5052156;28;20432;-70
2024/02/27 02:09:18;;;;;;;19.90;14.07;;;7.80;99.90;;;;;;5052254;28;20405;-70
2024/02/27 02:11:46;;;;;;;23.30;14.33;;;7.80;99.90;;;;;;5052286;28;20530;-70
2024/02/27 02:14:11;;;;;;;23.60;14.67;;;7.80;99.90;;;;;;5052091;28;20194;-70
2024/02/27 02:16:37;;;;;;;24.60;14.60;;;7.80;99.90;;;;;;5051976;28;20421;-70
2024/02/27 02:19:02;;;;;;;21.57;13.83;;;7.80;99.90;;;;;;5050763;28;20240;-70
2024/02/27 02:21:28;;;;;;;24.40;14.90;;;7.80;99.90;;;;;;5051506;28;20159;-70
2024/02/27 02:23:59;;;;;;;23.50;15.40;;;7.80;99.90;;;;;;5051690;28;20195;-70
2024/02/27 02:26:27;;;;;;;28.77;14.50;;;7.80;99.90;;;;;;5051191;28;20159;-70
2024/02/27 02:28:53;;;;;;;20.53;13.57;;;7.80;99.90;;;;;;5051928;28;20397;-71
2024/02/27 02:31:18;;;;;;;22.50;11.70;;;7.70;99.90;;;;;;5050760;28;20847;-70
2024/02/27 02:33:44;;;;;;;26.57;15.83;;;7.70;99.90;;;;;;5051897;28;20242;-70
2024/02/27 02:36:09;;;;;;;27.60;15.17;;;7.70;99.90;;;;;;5051877;28;20177;-70
2024/02/27 02:38:35;;;;;;;24.33;13.70;;;7.70;99.90;;;;;;5051715;28;20199;-70
2024/02/27 02:41:00;;;;;;;30.03;17.03;;;7.70;99.90;;;;;;5050481;28;20175;-70
2024/02/27 02:43:26;;;;;;;27.17;15.10;;;7.70;99.90;;;;;;5049981;28;20171;-70
2024/02/27 02:45:51;;;;;;;27.03;16.63;;;7.60;99.90;;;;;;5050278;28;20261;-70
2024/02/27 02:48:17;;;;;;;23.47;13.83;;;7.60;99.90;;;;;;5051739;28;20187;-70
2024/02/27 02:50:42;;;;;;;22.67;15.70;;;7.60;99.90;;;;;;5050480;28;20668;-70
2024/02/27 02:53:08;;;;;;;16.80;12.67;;;7.60;99.90;;;;;;5051471;28;20262;-70
2024/02/27 02:55:34;;;;;;;22.50;13.37;;;7.60;99.90;;;;;;5050509;28;20539;-70
2024/02/27 02:57:59;;;;;;;26.30;15.03;;;7.60;99.90;;;;;;5051439;28;20205;-70
2024/02/27 03:00:25;;;;;;;28.37;16.10;;;7.50;99.90;;;;;;5051598;28;20654;-70
2024/02/27 03:02:50;;;;;;;24.13;14.67;;;7.50;99.90;;;;;;5051328;28;20163;-70
2024/02/27 03:05:16;;;;;;;20.27;13.13;;;7.50;99.90;;;;;;5051558;28;20166;-70
2024/02/27 03:07:42;;;;;;;25.73;15.40;;;7.50;99.90;;;;;;5051377;28;20194;-70
2024/02/27 03:10:08;;;;;;;25.03;14.60;;;7.50;99.90;;;;;;5051468;28;20507;-70
2024/02/27 03:12:43;;;;;;;28.43;14.53;;;7.50;99.90;;;;;;5049960;28;20815;-70
2024/02/27 03:15:09;;;;;;;24.13;14.20;;;7.50;99.90;;;;;;5051610;28;20423;-70
2024/02/27 03:17:35;;;;;;;23.43;13.73;;;7.50;99.90;;;;;;5051396;28;20528;-70
2024/02/27 03:20:00;;;;;;;25.10;15.17;;;7.50;99.90;;;;;;5051497;28;20416;-70
2024/02/27 03:22:26;;;;;;;22.57;13.47;;;7.50;99.90;;;;;;5051218;28;20189;-70
2024/02/27 03:24:52;;;;;;;26.40;14.77;;;7.50;99.90;;;;;;5051345;28;20189;-70
2024/02/27 03:27:17;;;;;;;23.27;14.40;;;7.50;99.90;;;;;;5051276;28;20554;-70
2024/02/27 03:29:43;;;;;;;24.73;15.13;;;7.50;99.90;;;;;;5051437;28;20246;-70
2024/02/27 03:32:08;;;;;;;25.57;12.57;;;7.40;99.90;;;;;;5049766;28;20175;-70
2024/02/27 03:34:34;;;;;;;20.80;14.27;;;7.40;99.90;;;;;;5051218;28;20174;-71
2024/02/27 03:37:00;;;;;;;27.40;16.47;;;7.50;99.90;;;;;;5049808;28;20274;-70
2024/02/27 03:39:26;;;;;;;24.40;14.83;;;7.50;99.90;;;;;;5051184;28;20197;-70
2024/02/27 03:41:51;;;;;;;22.93;15.27;;;7.50;99.90;;;;;;5050877;28;20433;-70
2024/02/27 03:44:17;;;;;;;26.63;14.90;;;7.50;99.90;;;;;;5050906;28;20196;-70
2024/02/27 03:46:42;;;;;;;34.07;14.00;;;7.50;99.90;;;;;;5049643;28;20229;-70
2024/02/27 03:49:08;;;;;;;20.40;14.20;;;7.50;99.90;;;;;;5051029;28;20171;-70
2024/02/27 03:51:34;;;;;;;25.80;14.57;;;7.50;99.90;;;;;;5050898;28;20298;-70
2024/02/27 03:53:59;;;;;;;23.17;13.70;;;7.40;99.90;;;;;;5051006;28;20194;-70
2024/02/27 03:56:25;;;;;;;39.13;20.27;;;7.40;99.90;;;;;;5052384;28;20162;-71
2024/02/27 03:58:50;;;;;;;20.60;13.77;;;7.40;99.90;;;;;;5054650;28;20198;-70
2024/02/27 04:01:17;;;;;;;25.20;13.90;;;7.50;99.90;;;;;;5054498;28;20245;-70
2024/02/27 04:03:43;;;;;;;24.67;13.57;;;7.40;99.90;;;;;;5054640;28;20568;-70
2024/02/27 04:06:08;;;;;;;35.07;20.40;;;7.40;99.90;;;;;;5054571;28;20405;-70
2024/02/27 04:08:34;;;;;;;36.43;18.27;;;7.40;99.90;;;;;;5054455;28;20900;-70
2024/02/27 04:10:59;;;;;;;22.17;14.67;;;7.40;99.90;;;;;;5054407;28;20171;-70
2024/02/27 04:13:25;;;;;;;20.37;13.07;;;7.30;99.90;;;;;;5054238;28;20630;-70
2024/02/27 04:15:50;;;;;;;22.17;13.83;;;7.30;99.90;;;;;;5053217;28;20167;-70
2024/02/27 04:18:16;;;;;;;22.80;13.80;;;7.30;99.90;;;;;;5054213;28;20210;-70
2024/02/27 04:20:43;;;;;;;23.90;13.60;;;7.30;99.90;;;;;;5054593;28;20167;-70
2024/02/27 04:23:09;;;;;;;27.53;16.80;;;7.30;99.90;;;;;;5053980;28;20186;-70
2024/02/27 04:25:35;;;;;;;22.60;13.00;;;7.30;99.90;;;;;;5054177;28;20398;-70
2024/02/27 04:28:00;;;;;;;24.20;15.27;;;7.30;99.90;;;;;;5054103;28;20436;-70
2024/02/27 04:30:26;;;;;;;24.53;14.67;;;7.30;99.90;;;;;;5053009;28;20470;-70
2024/02/27 04:32:52;;;;;;;21.63;13.33;;;7.30;99.90;;;;;;5053868;28;20174;-71
2024/02/27 04:35:17;;;;;;;22.43;13.83;;;7.30;99.90;;;;;;5052776;28;20676;-70
2024/02/27 04:37:43;;;;;;;26.50;15.73;;;7.30;99.90;;;;;;5052651;28;20215;-71
2024/02/27 04:40:09;;;;;;;23.83;14.43;;;7.30;99.90;;;;;;5052593;28;20642;-70
2024/02/27 04:42:34;;;;;;;20.83;13.30;;;7.30;99.90;;;;;;5053685;28;20174;-70
2024/02/27 04:45:00;;;;;;;21.57;14.90;;;7.30;99.90;;;;;;5053861;28;20398;-69
2024/02/27 04:47:26;;;;;;;23.60;14.07;;;7.30;99.90;;;;;;5053861;28;20317;-70
2024/02/27 04:49:51;;;;;;;23.23;15.10;;;7.30;99.90;;;;;;5053849;28;20179;-70
2024/02/27 04:52:17;;;;;;;23.37;14.17;;;7.40;99.90;;;;;;5053213;28;20414;-70
2024/02/27 04:54:42;;;;;;;19.77;13.27;;;7.30;99.90;;;;;;5052353;28;20175;-70
2024/02/27 04:57:08;;;;;;;17.53;12.53;;;7.30;99.90;;;;;;5052234;28;20225;-70
2024/02/27 04:59:35;;;;;;;22.37;12.70;;;7.30;99.90;;;;;;5053604;28;20165;-70
2024/02/27 05:02:00;;;;;;;27.53;15.17;;;7.30;99.90;;;;;;5053237;28;20163;-70
2024/02/27 05:04:26;;;;;;;24.60;14.00;;;7.30;99.90;;;;;;5053551;28;20398;-70
2024/02/27 05:06:51;;;;;;;22.80;13.47;;;7.20;99.90;;;;;;5050970;28;20241;-69
2024/02/27 05:09:17;;;;;;;23.13;14.27;;;7.20;99.90;;;;;;5053306;28;20163;-69
2024/02/27 05:11:44;;;;;;;25.57;14.67;;;7.20;99.90;;;;;;5051551;28;20171;-70
2024/02/27 05:14:10;;;;;;;24.47;15.03;;;7.10;99.90;;;;;;5053239;28;20162;-70
2024/02/27 05:16:37;;;;;;;22.70;14.93;;;7.10;99.90;;;;;;5053156;28;20433;-70
2024/02/27 05:19:03;;;;;;;25.10;13.53;;;7.00;99.90;;;;;;5053208;28;20453;-70
2024/02/27 05:21:28;;;;;;;24.50;16.03;;;7.00;99.90;;;;;;5052903;28;20913;-70
2024/02/27 05:23:54;;;;;;;25.97;15.90;;;6.90;99.90;;;;;;5051770;28;20463;-70
2024/02/27 05:26:19;;;;;;;23.37;14.07;;;6.90;99.90;;;;;;5053030;28;20251;-70
2024/02/27 05:28:45;;;;;;;22.27;15.20;;;6.90;99.90;;;;;;5053021;28;20163;-70
2024/02/27 05:31:29;;;;;;;24.30;13.43;;;6.80;99.90;;;;;;5053133;28;20171;-70
2024/02/27 05:33:56;;;;;;;22.43;12.80;;;6.80;99.90;;;;;;5052862;28;20163;-70
2024/02/27 05:36:23;;;;;;;23.80;14.80;;;6.80;99.90;;;;;;5050993;28;20416;-70
2024/02/27 05:38:50;;;;;;;25.43;13.73;;;6.80;99.90;;;;;;5052785;28;20493;-70
2024/02/27 05:41:17;;;;;;;21.87;14.40;;;6.80;99.90;;;;;;5052817;28;20512;-70
2024/02/27 05:43:42;;;;;;;26.53;14.40;;;6.70;99.90;;;;;;5052932;28;20428;-70
2024/02/27 05:46:09;;;;;;;20.73;13.40;;;6.70;99.90;;;;;;5052660;28;20410;-70
2024/02/27 05:48:36;;;;;;;25.13;14.67;;;6.70;99.90;;;;;;5052641;28;20727;-69
2024/02/27 05:51:02;;;;;;;26.80;15.87;;;6.70;99.90;;;;;;5052639;28;20459;-69
2024/02/27 05:53:31;;;;;;;21.83;14.07;;;6.70;99.90;;;;;;5052546;28;20915;-70
2024/02/27 05:55:57;;;;;;;21.80;12.73;;;6.70;99.90;;;;;;5052496;28;20254;-70
2024/02/27 05:58:24;;;;;;;24.30;15.00;;;6.70;99.90;;;;;;5052508;28;20553;-70
2024/02/27 06:00:51;;;;;;;29.40;13.93;;;6.70;99.90;;;;;;5052434;28;20178;-70
2024/02/27 06:03:17;;;;;;;27.67;14.80;;;6.70;99.90;;;;;;5052044;28;20401;-70
2024/02/27 06:05:43;;;;;;;23.40;13.43;;;6.70;99.90;;;;;;5052214;28;20412;-71
2024/02/27 06:08:08;;;;;;;27.10;15.27;;;6.70;99.90;;;;;;5052271;28;20516;-70
2024/02/27 06:10:33;;;;;;;23.30;14.10;;;6.70;99.90;;;;;;5052343;28;20557;-70
2024/02/27 06:12:59;;;;;;;19.83;13.80;;;6.60;99.90;;;;;;5051987;28;20197;-70
2024/02/27 06:15:24;;;;;;;23.53;13.43;;;6.60;99.90;;;;;;5050875;28;20175;-70
2024/02/27 06:17:50;;;;;;;25.17;13.70;;;6.70;99.90;;;;;;5050542;28;20724;-69
2024/02/27 06:22:59;;;;;;;19.17;12.87;;;6.70;99.90;;;;;;5051889;28;20287;-70
2024/02/27 06:25:25;;;;;;;23.00;15.00;;;6.70;99.90;;;;;;5052054;28;20422;-70
2024/02/27 06:27:50;;;;;;;25.87;13.47;;;6.60;99.90;;;;;;5050498;28;20563;-70
2024/02/27 06:30:16;;;;;;;25.30;13.70;;;6.70;99.90;;;;;;5051972;28;20163;-70
2024/02/27 06:32:42;;;;;;;21.20;12.93;;;6.70;99.90;;;;;;5050341;28;20180;-70
2024/02/27 06:35:12;;;;;;;21.47;13.90;;;6.70;99.90;;;;;;5051689;28;20182;-70
2024/02/27 06:37:37;;;;;;;29.90;14.43;;;6.70;99.90;;;;;;5051676;28;20287;-70
2024/02/27 06:40:04;;;;;;;28.50;15.43;;;6.70;99.90;;;;;;5051879;28;20444;-71
2024/02/27 06:42:37;;;;;;;25.53;13.93;;;6.70;99.90;;;;;;5052052;28;20167;-70
2024/02/27 06:45:06;;;;;;;28.07;14.10;;;6.70;99.90;;;;;;5051811;28;20477;-70
2024/02/27 06:47:31;;;;;;;25.70;13.87;;;6.70;99.90;;;;;;5051948;28;20416;-71
2024/02/27 06:49:58;;;;;;;24.57;13.73;;;6.70;99.90;;;;;;5050263;28;20509;-70
2024/02/27 06:52:25;;;;;;;23.87;14.10;;;6.70;99.90;;;;;;5051004;28;20682;-71
2024/02/27 06:54:50;;;;;;;29.93;15.30;;;6.80;99.90;;;;;;5051366;28;20905;-70
2024/02/27 06:57:16;;;;;;;24.20;14.50;;;6.80;99.90;;;;;;5050822;28;20441;-70
2024/02/27 06:59:41;;;;;;;28.50;14.73;;;6.80;99.90;;;;;;5051206;28;20228;-69
2024/02/27 07:02:07;;;;;;;22.67;14.37;;;6.90;99.90;;;;;;5049667;28;20194;-69
2024/02/27 07:04:33;;;;;;;23.23;15.40;;;6.90;99.90;;;;;;5051136;28;20194;-70
2024/02/27 07:06:59;;;;;;;28.87;14.60;;;7.00;99.90;;;;;;5051107;28;20260;-70
2024/02/27 07:09:25;;;;;;;21.03;13.60;;;7.00;99.90;;;;;;5051139;28;20405;-70
2024/02/27 07:11:50;;;;;;;25.90;15.40;;;7.10;99.90;;;;;;5050167;28;20477;-70
2024/02/27 07:14:16;;;;;;;25.60;14.87;;;7.20;99.90;;;;;;5051022;28;20163;-70
2024/02/27 07:16:42;;;;;;;20.00;13.87;;;7.30;99.90;;;;;;5051193;28;20190;-70
2024/02/27 07:19:07;;;;;;;22.20;13.47;;;7.40;99.90;;;;;;5049874;28;20294;-70
2024/02/27 07:21:33;;;;;;;24.63;12.53;;;7.50;99.90;;;;;;5050851;28;20167;-70
2024/02/27 07:23:58;;;;;;;20.23;12.17;;;7.60;99.90;;;;;;5049746;28;20167;-71
2024/02/27 07:26:24;;;;;;;25.93;13.67;;;7.80;99.90;;;;;;5051045;28;20217;-71
2024/02/27 07:28:49;;;;;;;20.33;12.97;;;7.90;99.90;;;;;;5051030;28;20194;-70
2024/02/27 07:31:18;;;;;;;23.17;14.00;;;8.00;99.90;;;;;;5053503;28;20198;-67
2024/02/27 07:33:44;;;;;;;24.50;15.40;;;8.20;99.90;;;;;;5055019;28;20304;-67
2024/02/27 07:36:10;;;;;;;21.20;12.70;;;8.30;99.90;;;;;;5054565;28;20441;-67
2024/02/27 07:38:35;;;;;;;21.87;14.80;;;8.50;99.90;;;;;;5054778;28;20503;-67
2024/02/27 07:41:01;;;;;;;24.90;14.13;;;8.70;99.90;;;;;;5055085;28;20242;-68
2024/02/27 07:43:27;;;;;;;27.77;17.43;;;8.90;99.90;;;;;;5054671;28;20193;-67
2024/02/27 07:45:52;;;;;;;22.17;14.30;;;9.20;99.90;;;;;;5054965;28;20238;-67
2024/02/27 07:48:19;;;;;;;21.30;12.70;;;9.30;99.90;;;;;;5054735;28;20183;-67
2024/02/27 07:50:45;;;;;;;25.13;13.07;;;9.60;99.90;;;;;;5054905;28;20186;-67
2024/02/27 07:53:11;;;;;;;22.60;15.97;;;9.80;99.90;;;;;;5054322;28;20456;-67
2024/02/27 07:55:38;;;;;;;23.20;14.63;;;10.10;99.90;;;;;;5054776;28;20206;-67
2024/02/27 07:58:04;;;;;;;19.30;13.60;;;10.30;99.90;;;;;;5054645;28;20445;-67
2024/02/27 08:00:30;;;;;;;22.07;13.53;;;10.50;99.90;;;;;;5055012;28;21047;-67
2024/02/27 08:02:55;;;;;;;21.77;14.27;;;10.80;99.90;;;;;;5054380;28;20178;-67
2024/02/27 08:05:22;;;;;;;24.17;16.07;;;11.10;99.90;;;;;;5054599;28;20178;-67
2024/02/27 08:07:47;;;;;;;21.60;13.10;;;11.40;99.90;;;;;;5054467;28;20187;-67
2024/02/27 08:10:13;;;;;;;22.67;15.37;;;11.70;99.90;;;;;;5054547;28;20505;-67
2024/02/27 08:12:38;;;;;;;23.70;14.97;;;11.90;99.90;;;;;;5054300;28;20206;-67
2024/02/27 08:15:04;;;;;;;20.30;13.70;;;12.00;99.90;;;;;;5054483;28;20163;-67
2024/02/27 08:17:30;;;;;;;20.70;15.23;;;12.00;99.90;;;;;;5054186;28;20562;-68
2024/02/27 08:19:56;;;;;;;21.60;13.77;;;11.90;99.90;;;;;;5054397;28;20736;-67
2024/02/27 08:22:21;;;;;;;19.03;14.23;;;11.90;99.90;;;;;;5054007;28;20240;-67
2024/02/27 08:24:48;;;;;;;20.30;14.10;;;11.90;99.90;;;;;;5054387;28;20393;-68
2024/02/27 08:27:13;;;;;;;19.47;14.80;;;12.00;99.90;;;;;;5054023;28;20193;-67
2024/02/27 08:29:39;;;;;;;17.57;12.90;;;12.10;99.90;;;;;;5054158;28;20792;-68
2024/02/27 08:32:04;;;;;;;23.60;13.27;;;12.30;99.90;;;;;;5053887;28;20669;-67
2024/02/27 08:34:30;;;;;;;23.63;14.17;;;12.50;99.90;;;;;;5054288;28;20166;-67
2024/02/27 08:36:56;;;;;;;23.70;12.90;;;12.60;99.90;;;;;;5053918;28;20195;-67
2024/02/27 08:39:21;;;;;;;18.93;14.30;;;12.70;99.90;;;;;;5053626;28;20198;-68
2024/02/27 08:41:47;;;;;;;19.53;13.70;;;12.60;99.90;;;;;;5053360;28;20401;-67
2024/02/27 08:44:12;;;;;;;18.63;12.70;;;12.50;99.90;;;;;;5053829;28;20174;-67
2024/02/27 08:46:39;;;;;;;19.67;15.17;;;12.40;99.90;;;;;;5053579;28;20610;-66
2024/02/27 08:49:05;;;;;;;20.50;13.53;;;12.30;99.90;;;;;;5053671;28;20175;-68
2024/02/27 08:51:33;;;;;;;20.77;13.73;;;12.30;99.90;;;;;;5053475;28;20409;-67
2024/02/27 08:54:00;;;;;;;18.13;13.07;;;12.40;99.90;;;;;;5053530;28;20228;-67
2024/02/27 08:56:25;;;;;;;24.20;14.33;;;12.60;99.90;;;;;;5053462;28;20429;-68
2024/02/27 08:58:51;;;;;;;19.53;13.17;;;12.80;99.90;;;;;;5053507;28;20481;-68
2024/02/27 09:01:16;;;;;;;21.80;13.23;;;13.20;99.90;;;;;;5053238;28;20661;-68
2024/02/27 09:03:43;;;;;;;24.33;13.57;;;14.10;99.90;;;;;;5053413;28;20165;-68
2024/02/27 09:06:11;;;;;;;19.37;12.73;;;15.30;99.90;;;;;;5053484;28;20666;-68
2024/02/27 09:08:37;;;;;;;17.50;12.63;;;16.70;99.90;;;;;;5053404;28;20416;-68
2024/02/27 09:11:03;;;;;;;20.97;13.30;;;17.80;99.90;;;;;;5053369;28;20405;-68
2024/02/27 09:13:28;;;;;;;20.40;12.67;;;18.80;99.90;;;;;;5053005;28;20179;-68
2024/02/27 09:15:54;;;;;;;16.30;13.93;;;20.20;97.10;;;;;;5053209;28;20223;-68
2024/02/27 09:18:19;;;;;;;15.60;12.10;;;21.30;81.60;;;;;;5053121;28;20696;-68
2024/02/27 09:20:45;;;;;;;13.97;11.00;;;21.70;70.90;;;;;;5053277;28;20254;-68
2024/02/27 09:23:11;;;;;;;16.90;13.40;;;21.60;63.30;;;;;;5052923;28;20155;-68
2024/02/27 09:25:37;;;;;;;16.00;11.90;;;21.80;59.60;;;;;;5053076;28;20199;-68
2024/02/27 09:28:04;;;;;;;12.70;10.60;;;22.80;59.40;;;;;;5053038;28;20187;-68
2024/02/27 09:30:29;;;;;;;13.93;11.43;;;24.10;56.60;;;;;;5053045;28;20421;-68
2024/02/27 09:32:55;;;;;;;14.93;13.30;;;25.40;52.90;;;;;;5052854;28;20424;-68
2024/02/27 09:35:20;;;;;;;11.63;10.43;;;26.50;47.70;;;;;;5052974;28;20216;-68
2024/02/27 09:37:46;;;;;;;12.97;10.93;;;26.90;44.90;;;;;;5052708;28;20199;-69
2024/02/27 09:40:12;;;;;;;11.53;10.43;;;26.80;43.30;;;;;;5052773;28;20173;-67
2024/02/27 09:42:39;;;;;;;12.80;11.50;;;26.70;42.60;;;;;;5052419;28;20163;-67
2024/02/27 09:45:06;;;;;;;12.60;11.27;;;26.20;41.60;;;;;;5052685;28;20163;-67
2024/02/27 09:47:37;;;;;;;12.30;11.00;;;25.80;41.30;;;;;;5052525;28;20433;-67
2024/02/27 09:50:04;;;;;;;13.50;11.80;;;25.40;41.20;;;;;;5052608;28;20767;-67
2024/02/27 09:52:33;;;;;;;12.27;10.90;;;24.90;41.30;;;;;;5051672;28;20433;-67
2024/02/27 09:54:59;;;;;;;12.87;11.57;;;24.40;42.00;;;;;;5052372;28;20436;-67
2024/02/27 09:57:26;;;;;;;13.67;12.23;;;23.90;42.20;;;;;;5052277;28;20449;-67
2024/02/27 09:59:53;;;;;;;14.50;12.40;;;23.60;42.70;;;;;;5052338;28;20398;-67
2024/02/27 10:02:19;;;;;;;12.77;11.07;;;23.30;43.00;;;;;;5052084;28;20463;-67
2024/02/27 10:04:45;;;;;;;14.90;11.67;;;22.90;43.50;;;;;;5052247;28;20493;-67
2024/02/27 10:07:12;;;;;;;12.13;10.83;;;22.70;43.40;;;;;;5052062;28;20183;-67
2024/02/27 10:09:48;;;;;;;14.40;12.40;;;22.70;43.90;;;;;;5050891;28;20405;-68
2024/02/27 10:12:14;;;;;;;12.30;11.00;;;23.00;44.30;;;;;;5051887;28;20760;-67
2024/02/27 10:14:40;;;;;;;14.50;10.77;;;23.60;44.30;;;;;;5052109;28;20946;-67
2024/02/27 10:17:06;;;;;;;11.60;10.37;;;24.30;44.10;;;;;;5052031;28;20846;-68
2024/02/27 10:19:34;;;;;;;11.00;8.97;;;26.20;45.10;;;;;;5052139;28;20393;-68
2024/02/27 10:22:00;;;;;;;7.90;7.10;;;29.50;44.10;;;;;;5051805;28;20397;-68
2024/02/27 10:24:29;;;;;;;10.07;9.07;;;31.80;40.60;;;;;;5052090;28;20424;-68
2024/02/27 10:27:01;;;;;;;13.33;11.70;;;32.60;36.10;;;;;;5051985;28;20420;-68
2024/02/27 10:29:28;;;;;;;9.90;9.00;;;32.70;32.90;;;;;;5051967;28;20408;-68
2024/02/27 10:31:54;;;;;;;10.30;9.30;;;32.40;31.60;;;;;;5051702;28;20437;-68
2024/02/27 10:34:21;;;;;;;9.83;8.93;;;32.00;31.60;;;;;;5051854;28;20429;-67
2024/02/27 10:37:03;;;;;;;10.13;8.40;;;31.40;32.10;;;;;;5050533;28;20431;-68
2024/02/27 10:39:30;;;;;;;12.30;11.10;;;31.30;32.60;;;;;;5051785;28;20449;-67
2024/02/27 10:41:57;;;;;;;11.80;10.47;;;31.20;31.70;;;;;;5051543;28;20489;-68
2024/02/27 10:44:23;;;;;;;13.10;11.73;;;30.50;31.10;;;;;;5051752;28;20413;-68
2024/02/27 10:46:49;;;;;;;12.47;10.30;;;30.50;31.70;;;;;;5051623;28;20425;-68
2024/02/27 10:49:16;;;;;;;9.53;8.57;;;31.80;32.60;;;;;;5051776;28;20409;-68
2024/02/27 10:51:43;;;;;;;11.30;10.10;;;32.70;31.30;;;;;;5051369;28;20645;-68
2024/02/27 10:54:09;;;;;;;7.40;6.57;;;33.40;29.90;;;;;;5051309;28;20578;-68
2024/02/27 10:56:35;;;;;;;8.90;8.10;;;32.90;29.80;;;;;;5051645;28;20432;-68
2024/02/27 10:59:03;;;;;;;10.90;9.13;;;31.90;29.90;;;;;;5051528;28;20456;-67
2024/02/27 11:01:29;;;;;;;11.70;10.47;;;30.50;30.30;;;;;;5051265;28;20177;-67
2024/02/27 11:03:56;;;;;;;11.63;10.43;;;28.80;30.70;;;;;;5051536;28;20402;-67
2024/02/27 11:06:28;;;;;;;12.70;11.03;;;27.10;31.90;;;;;;5054492;28;20443;-67
2024/02/27 11:09:07;;;;;;;11.30;10.20;;;25.40;33.50;;;;;;5055532;28;20429;-66
2024/02/27 11:11:35;;;;;;;10.87;9.77;;;24.00;35.80;;;;;;5055337;28;20971;-66
2024/02/27 11:14:05;;;;;;;12.90;10.67;;;23.10;37.00;;;;;;5055414;28;20467;-66
2024/02/27 11:16:32;;;;;;;13.63;10.77;;;22.10;37.80;;;;;;5055516;28;20773;-66
2024/02/27 11:19:12;;;;;;;14.50;11.53;;;21.20;38.80;;;;;;5055349;28;20453;-66
2024/02/27 11:21:40;;;;;;;12.97;10.10;;;20.50;40.40;;;;;;5055176;28;20522;-66
2024/02/27 11:24:05;;;;;;;11.77;9.93;;;20.00;42.00;;;;;;5055342;28;20417;-66
2024/02/27 11:26:32;;;;;;;13.37;11.70;;;19.70;42.90;;;;;;5055103;28;20414;-66
2024/02/27 11:28:59;;;;;;;11.63;10.07;;;19.40;43.50;;;;;;5055052;28;20167;-66
2024/02/27 11:31:25;;;;;;;13.10;11.07;;;19.30;45.00;;;;;;5054980;28;20406;-66
2024/02/27 11:33:51;;;;;;;16.30;9.87;;;19.30;44.90;;;;;;5055180;28;20508;-66
2024/02/27 11:36:17;;;;;;;14.03;9.90;;;19.40;45.00;;;;;;5055153;28;20405;-66
2024/02/27 11:38:43;;;;;;;14.83;12.20;;;19.50;45.10;;;;;;5054941;28;20461;-67
2024/02/27 11:41:21;;;;;;;17.77;12.03;;;19.50;44.70;;;;;;5055097;28;20555;-67
2024/02/27 11:43:48;;;;;;;15.30;12.83;;;19.80;44.50;;;;;;5055116;28;20397;-67
2024/02/27 11:46:34;;;;;;;15.37;12.37;;;20.00;44.10;;;;;;5054892;28;20982;-67
2024/02/27 11:49:01;;;;;;;14.40;12.57;;;20.10;43.40;;;;;;5054799;28;20405;-67
2024/02/27 11:51:32;;;;;;;16.37;12.00;;;20.00;43.30;;;;;;5054483;28;20502;-67
2024/02/27 11:53:58;;;;;;;17.97;12.07;;;19.80;43.50;;;;;;5054688;28;20436;-67
2024/02/27 11:56:24;;;;;;;13.40;11.47;;;19.40;43.60;;;;;;5054674;28;20770;-66
2024/02/27 11:58:52;;;;;;;16.93;10.63;;;19.30;44.70;;;;;;5054575;28;20212;-66
2024/02/27 12:01:18;;;;;;;18.23;12.27;;;19.40;45.10;;;;;;5054420;28;20406;-65
2024/02/27 12:03:44;;;;;;;14.77;11.50;;;19.20;44.50;;;;;;5053173;28;20413;-66
2024/02/27 12:06:11;;;;;;;15.03;11.43;;;19.00;44.70;;;;;;5054492;28;20500;-66
2024/02/27 12:08:46;;;;;;;17.00;11.20;;;18.70;45.20;;;;;;5054397;28;20802;-66
2024/02/27 12:11:12;;;;;;;16.60;13.23;;;18.30;45.40;;;;;;5053083;28;20512;-66
2024/02/27 12:13:38;;;;;;;12.90;10.33;;;17.90;46.00;;;;;;5054033;28;20893;-66
2024/02/27 12:16:04;;;;;;;14.90;11.20;;;17.80;46.90;;;;;;5053742;28;20412;-67
2024/02/27 12:18:30;;;;;;;13.73;11.13;;;18.00;47.40;;;;;;5054099;28;20287;-67
2024/02/27 12:20:55;;;;;;;14.07;11.17;;;18.10;47.40;;;;;;5054268;28;20167;-67
2024/02/27 12:23:22;;;;;;;14.80;11.13;;;17.90;47.10;;;;;;5053950;28;20179;-67
2024/02/27 12:25:47;;;;;;;13.20;10.97;;;17.70;47.20;;;;;;5054140;28;20163;-67
2024/02/27 12:28:18;;;;;;;18.53;11.97;;;17.50;47.70;;;;;;5053970;28;20440;-66
2024/02/27 12:30:46;;;;;;;17.43;12.80;;;17.40;47.90;;;;;;5054050;28;20171;-66